Thunder radar more information blitzortung!


Löydät sääaseman tiedot myös:

European Weather Network

Finland Weather Exchange

Weather Underground

AWEKAS



Weather Underground säähistoriasivu

Päivittäin yhteenveto Lokakuu 17, 2017 Yksiköt:  Englantilaiset    Metriset   Molemmat
« Edellinen Päivä
Seuraava Päivä »
Päivittäin Viikoittain Kuukausittain Vuosittain Mukautettu
  Korkea: Matala: Keskiarvo:
Lämpötila: TemperatureC °F 3.9 °F 5.5 °F
Kastepiste: DewpointC °F 2.9 °F 3.7 °F
Kosteus: Humidity % 79 % 86 %
Tuulen nopeus: WindSpeedKMH mph 0.0 mph 0 mph
Tuulenpuuska: WindSpeedGustKMH mph - -
Tuuli:- - North
Ilmanpaine: PressurehPa in 1006.7 in -
Sade: 0.0 in    
Historical Graphs
 
 
Taulukkotiedot Lokakuu 17, 2017
Aika Lämpötila Kastepiste Ilmanpaine Tuuli Tuulen nopeus Tuulenpuuska Kosteus Sademäärä (tunneittain)
TemperatureC °F DewpointC °F PressurehPa in Calm     Humidity % HourlyPrecipMM in
00:00 7.2 °F 3.8 °F 1006.7 in Calm     79 % 0.0 in
00:15 7.1 °F 3.8 °F 1006.7 in Calm     80 % 0.0 in
00:30 6.9 °F 3.7 °F 1006.7 in Calm     80 % 0.0 in
00:45 6.8 °F 3.8 °F 1007.0 in Calm     81 % 0.0 in
01:00 6.7 °F 3.8 °F 1007.0 in Calm     82 % 0.0 in
01:15 6.5 °F 3.6 °F 1007.0 in Calm     82 % 0.0 in
01:30 6.4 °F 3.8 °F 1007.0 in Calm     83 % 0.0 in
01:45 6.3 °F 3.6 °F 1007.3 in Calm     83 % 0.0 in
02:00 6.2 °F 3.5 °F 1007.3 in Calm     83 % 0.0 in
02:15 6.1 °F 3.6 °F 1007.3 in Calm     84 % 0.0 in
02:30 6.1 °F 3.6 °F 1007.7 in Calm     84 % 0.0 in
02:45 6.0 °F 3.7 °F 1007.7 in Calm     85 % 0.0 in
03:00 5.9 °F 3.6 °F 1008.0 in Calm     85 % 0.0 in
03:15 5.8 °F 3.7 °F 1008.0 in Calm     86 % 0.0 in
03:30 5.8 °F 3.6 °F 1007.7 in Calm     86 % 0.0 in
03:45 5.8 °F 3.8 °F 1007.7 in Calm     87 % 0.0 in
04:00 5.8 °F 3.8 °F 1008.0 in Calm     87 % 0.0 in
04:15 5.9 °F 3.9 °F 1008.0 in Calm     87 % 0.0 in
04:30 5.9 °F 3.9 °F 1008.0 in Calm     87 % 0.0 in
04:45 5.9 °F 3.9 °F 1008.4 in Calm     87 % 0.0 in
05:00 5.8 °F 3.8 °F 1008.4 in Calm     87 % 0.0 in
05:15 5.7 °F 3.9 °F 1008.0 in Calm     88 % 0.0 in
05:30 5.6 °F 3.8 °F 1008.0 in Calm     88 % 0.0 in
05:45 5.6 °F 3.9 °F 1008.0 in Calm     89 % 0.0 in
06:00 5.6 °F 3.9 °F 1008.0 in Calm     89 % 0.0 in
06:30 5.5 °F 3.8 °F 1008.0 in Calm     89 % 0.0 in
06:45 5.3 °F 3.7 °F 1008.0 in Calm     89 % 0.0 in
07:00 5.2 °F 3.5 °F 1008.0 in Calm     89 % 0.0 in
07:15 4.9 °F 3.4 °F 1008.0 in Calm     90 % 0.0 in
07:30 4.7 °F 3.2 °F 1007.7 in Calm     90 % 0.0 in
07:45 4.4 °F 3.1 °F 1008.0 in Calm     91 % 0.0 in
08:00 4.2 °F 3.0 °F 1008.0 in Calm     92 % 0.0 in
08:15 4.1 °F 2.9 °F 1008.0 in Calm     92 % 0.0 in
08:30 3.9 °F 2.9 °F 1008.0 in Calm     93 % 0.0 in
08:45 4.0 °F 3.0 °F 1007.7 in Calm     93 % 0.0 in
09:00 4.1 °F 3.1 °F 1007.7 in Calm     93 % 0.0 in
09:15 4.4 °F 3.4 °F 1007.7 in Calm     93 % 0.0 in
09:30 4.8 °F 3.7 °F 1007.3 in Calm     93 % 0.0 in
09:45 4.9 °F 3.7 °F 1007.3 in Calm     92 % 0.0 in
10:00 5.1 °F 3.9 °F 1007.3 in Calm     92 % 0.0 in
10:15 5.4 °F 4.2 °F 1007.7 in Calm     92 % 0.0 in
10:30 5.9 °F 4.5 °F 1008.0 in Calm     91 % 0.0 in
10:45 6.1 °F 4.6 °F 1007.7 in Calm     90 % 0.0 in
11:00 6.3 °F 4.6 °F 1007.7 in Calm     89 % 0.0 in
11:15 6.3 °F 4.8 °F 1007.0 in Calm     90 % 0.0 in
11:30 6.6 °F 4.9 °F 1007.0 in Calm     89 % 0.0 in
11:45 6.6 °F 4.9 °F 1007.0 in Calm     89 % 0.0 in
Esan sääasema
Terveisin Weather Underground - 2.5 mb

Alkuperäinen skripti  Jim McMurry - jmcmurry@mwt.net Sovitettu myös templatelle  Wim van der Kuil - Leuven-Template.eu

Laitteet joita käytämme:

Sääasema
Davis VP2

Sääasemaohjelma
Cumulus

Sääaseman tietokone
Asus EeePC

Palveluntarjoaja
Suncomet

Davis VP2

Cumulus

Asus EeePC

Suncomet